<?xml version="1.0" encoding="UTF-8" standalone="no" ?>
<gpx xmlns="http://www.topografix.com/GPX/1/1" xmlns:xsi="http://www.w3.org/2001/XMLSchema-instance" xsi:schemaLocation="http://www.topografix.com/GPX/1/1 http://www.topografix.com/GPX/1/1/gpx.xsd" version="1.1" creator="VisuGPX - https://www.visugpx.com">
  <metadata>
    <name>2020 Bretagne </name>
  </metadata>
  <trk>
    <name><![CDATA[20-08-11]]></name>
    <trkseg>
      <trkpt lat="47.83509" lon="-2.96174">
        <ele>123.19</ele>
        <time>2020-08-11T16:30:10Z</time>
      </trkpt>
      <trkpt lat="47.83509" lon="-2.96178">
        <ele>123.19</ele>
        <time>2020-08-11T16:30:11Z</time>
      </trkpt>
      <trkpt lat="47.83499" lon="-2.96173">
        <ele>120.3</ele>
        <time>2020-08-11T16:30:21Z</time>
      </trkpt>
      <trkpt lat="47.83498" lon="-2.96174">
        <ele>123.67</ele>
        <time>2020-08-11T16:30:22Z</time>
      </trkpt>
      <trkpt lat="47.83496" lon="-2.96173">
        <ele>123.67</ele>
        <time>2020-08-11T16:30:37Z</time>
      </trkpt>
      <trkpt lat="47.83495" lon="-2.96176">
        <ele>123.67</ele>
        <time>2020-08-11T16:30:56Z</time>
      </trkpt>
      <trkpt lat="47.83499" lon="-2.96173">
        <ele>124.63</ele>
        <time>2020-08-11T16:31:10Z</time>
      </trkpt>
      <trkpt lat="47.83499" lon="-2.96162">
        <ele>125.11</ele>
        <time>2020-08-11T16:31:24Z</time>
      </trkpt>
      <trkpt lat="47.83499" lon="-2.96148">
        <ele>125.11</ele>
        <time>2020-08-11T16:31:36Z</time>
      </trkpt>
      <trkpt lat="47.83496" lon="-2.96134">
        <ele>125.11</ele>
        <time>2020-08-11T16:31:48Z</time>
      </trkpt>
      <trkpt lat="47.83497" lon="-2.9613">
        <ele>125.59</ele>
        <time>2020-08-11T16:31:56Z</time>
      </trkpt>
      <trkpt lat="47.83496" lon="-2.9612">
        <ele>125.59</ele>
        <time>2020-08-11T16:32:08Z</time>
      </trkpt>
      <trkpt lat="47.83492" lon="-2.96106">
        <ele>125.59</ele>
        <time>2020-08-11T16:32:19Z</time>
      </trkpt>
      <trkpt lat="47.83489" lon="-2.96094">
        <ele>125.59</ele>
        <time>2020-08-11T16:32:31Z</time>
      </trkpt>
      <trkpt lat="47.83487" lon="-2.96084">
        <ele>126.07</ele>
        <time>2020-08-11T16:32:40Z</time>
      </trkpt>
      <trkpt lat="47.83484" lon="-2.96072">
        <ele>126.07</ele>
        <time>2020-08-11T16:32:50Z</time>
      </trkpt>
      <trkpt lat="47.8348" lon="-2.96061">
        <ele>126.07</ele>
        <time>2020-08-11T16:32:59Z</time>
      </trkpt>
      <trkpt lat="47.83467" lon="-2.96041">
        <ele>126.07</ele>
        <time>2020-08-11T16:33:11Z</time>
      </trkpt>
      <trkpt lat="47.8346" lon="-2.96021">
        <ele>125.59</ele>
        <time>2020-08-11T16:33:22Z</time>
      </trkpt>
      <trkpt lat="47.83457" lon="-2.96014">
        <ele>125.59</ele>
        <time>2020-08-11T16:33:28Z</time>
      </trkpt>
      <trkpt lat="47.83455" lon="-2.96009">
        <ele>125.59</ele>
        <time>2020-08-11T16:33:30Z</time>
      </trkpt>
      <trkpt lat="47.83452" lon="-2.95998">
        <ele>125.59</ele>
        <time>2020-08-11T16:33:38Z</time>
      </trkpt>
      <trkpt lat="47.83446" lon="-2.95978">
        <ele>124.63</ele>
        <time>2020-08-11T16:33:49Z</time>
      </trkpt>
      <trkpt lat="47.83445" lon="-2.95974">
        <ele>124.63</ele>
        <time>2020-08-11T16:33:51Z</time>
      </trkpt>
      <trkpt lat="47.83444" lon="-2.95968">
        <ele>124.63</ele>
        <time>2020-08-11T16:33:54Z</time>
      </trkpt>
      <trkpt lat="47.83443" lon="-2.95948">
        <ele>123.67</ele>
        <time>2020-08-11T16:34:06Z</time>
      </trkpt>
      <trkpt lat="47.83436" lon="-2.95926">
        <ele>123.19</ele>
        <time>2020-08-11T16:34:18Z</time>
      </trkpt>
      <trkpt lat="47.83434" lon="-2.95917">
        <ele>124.15</ele>
        <time>2020-08-11T16:34:22Z</time>
      </trkpt>
      <trkpt lat="47.83432" lon="-2.95905">
        <ele>123.67</ele>
        <time>2020-08-11T16:34:27Z</time>
      </trkpt>
      <trkpt lat="47.83427" lon="-2.9588">
        <ele>123.67</ele>
        <time>2020-08-11T16:34:39Z</time>
      </trkpt>
      <trkpt lat="47.83421" lon="-2.95855">
        <ele>123.19</ele>
        <time>2020-08-11T16:34:55Z</time>
      </trkpt>
      <trkpt lat="47.83418" lon="-2.95845">
        <ele>123.19</ele>
        <time>2020-08-11T16:35:04Z</time>
      </trkpt>
      <trkpt lat="47.83417" lon="-2.95844">
        <ele>122.71</ele>
        <time>2020-08-11T16:35:05Z</time>
      </trkpt>
      <trkpt lat="47.83413" lon="-2.9584">
        <ele>123.19</ele>
        <time>2020-08-11T16:35:08Z</time>
      </trkpt>
      <trkpt lat="47.83411" lon="-2.95834">
        <ele>122.71</ele>
        <time>2020-08-11T16:35:11Z</time>
      </trkpt>
      <trkpt lat="47.83403" lon="-2.95808">
        <ele>122.71</ele>
        <time>2020-08-11T16:35:25Z</time>
      </trkpt>
      <trkpt lat="47.83401" lon="-2.95798">
        <ele>122.71</ele>
        <time>2020-08-11T16:35:32Z</time>
      </trkpt>
      <trkpt lat="47.834" lon="-2.95793">
        <ele>122.71</ele>
        <time>2020-08-11T16:35:35Z</time>
      </trkpt>
      <trkpt lat="47.83395" lon="-2.95782">
        <ele>122.22</ele>
        <time>2020-08-11T16:35:43Z</time>
      </trkpt>
      <trkpt lat="47.8339" lon="-2.95765">
        <ele>122.71</ele>
        <time>2020-08-11T16:35:53Z</time>
      </trkpt>
      <trkpt lat="47.83389" lon="-2.95757">
        <ele>122.22</ele>
        <time>2020-08-11T16:35:58Z</time>
      </trkpt>
      <trkpt lat="47.83385" lon="-2.9574">
        <ele>122.71</ele>
        <time>2020-08-11T16:36:08Z</time>
      </trkpt>
      <trkpt lat="47.83381" lon="-2.95724">
        <ele>122.71</ele>
        <time>2020-08-11T16:36:19Z</time>
      </trkpt>
      <trkpt lat="47.83381" lon="-2.95722">
        <ele>122.71</ele>
        <time>2020-08-11T16:36:20Z</time>
      </trkpt>
      <trkpt lat="47.83378" lon="-2.95707">
        <ele>123.19</ele>
        <time>2020-08-11T16:36:28Z</time>
      </trkpt>
      <trkpt lat="47.83378" lon="-2.95702">
        <ele>122.71</ele>
        <time>2020-08-11T16:36:31Z</time>
      </trkpt>
      <trkpt lat="47.83376" lon="-2.95686">
        <ele>122.71</ele>
        <time>2020-08-11T16:36:39Z</time>
      </trkpt>
      <trkpt lat="47.83375" lon="-2.95679">
        <ele>123.19</ele>
        <time>2020-08-11T16:36:42Z</time>
      </trkpt>
      <trkpt lat="47.83372" lon="-2.95661">
        <ele>122.71</ele>
        <time>2020-08-11T16:36:51Z</time>
      </trkpt>
      <trkpt lat="47.83366" lon="-2.95643">
        <ele>123.19</ele>
        <time>2020-08-11T16:37:01Z</time>
      </trkpt>
      <trkpt lat="47.83366" lon="-2.95641">
        <ele>123.67</ele>
        <time>2020-08-11T16:37:02Z</time>
      </trkpt>
      <trkpt lat="47.83362" lon="-2.95629">
        <ele>123.19</ele>
        <time>2020-08-11T16:37:12Z</time>
      </trkpt>
      <trkpt lat="47.83362" lon="-2.95629">
        <ele>123.19</ele>
        <time>2020-08-11T16:37:13Z</time>
      </trkpt>
      <trkpt lat="47.83356" lon="-2.95617">
        <ele>124.15</ele>
        <time>2020-08-11T16:37:24Z</time>
      </trkpt>
      <trkpt lat="47.83355" lon="-2.95611">
        <ele>124.15</ele>
        <time>2020-08-11T16:37:28Z</time>
      </trkpt>
      <trkpt lat="47.83354" lon="-2.95607">
        <ele>125.11</ele>
        <time>2020-08-11T16:37:30Z</time>
      </trkpt>
      <trkpt lat="47.83363" lon="-2.95548">
        <ele>125.59</ele>
        <time>2020-08-11T16:37:39Z</time>
      </trkpt>
      <trkpt lat="47.8336" lon="-2.95523">
        <ele>126.55</ele>
        <time>2020-08-11T16:37:50Z</time>
      </trkpt>
      <trkpt lat="47.83359" lon="-2.9551">
        <ele>127.03</ele>
        <time>2020-08-11T16:37:58Z</time>
      </trkpt>
      <trkpt lat="47.83354" lon="-2.95492">
        <ele>127.99</ele>
        <time>2020-08-11T16:38:06Z</time>
      </trkpt>
      <trkpt lat="47.83353" lon="-2.95485">
        <ele>128.47</ele>
        <time>2020-08-11T16:38:09Z</time>
      </trkpt>
      <trkpt lat="47.83352" lon="-2.95479">
        <ele>128.47</ele>
        <time>2020-08-11T16:38:11Z</time>
      </trkpt>
      <trkpt lat="47.8335" lon="-2.95469">
        <ele>128.95</ele>
        <time>2020-08-11T16:38:16Z</time>
      </trkpt>
      <trkpt lat="47.83348" lon="-2.9546">
        <ele>129.43</ele>
        <time>2020-08-11T16:38:20Z</time>
      </trkpt>
      <trkpt lat="47.83347" lon="-2.95455">
        <ele>129.92</ele>
        <time>2020-08-11T16:38:24Z</time>
      </trkpt>
      <trkpt lat="47.83346" lon="-2.95442">
        <ele>130.88</ele>
        <time>2020-08-11T16:38:36Z</time>
      </trkpt>
      <trkpt lat="47.83343" lon="-2.95427">
        <ele>131.84</ele>
        <time>2020-08-11T16:38:48Z</time>
      </trkpt>
      <trkpt lat="47.83343" lon="-2.9542">
        <ele>132.32</ele>
        <time>2020-08-11T16:38:52Z</time>
      </trkpt>
      <trkpt lat="47.83341" lon="-2.95409">
        <ele>132.32</ele>
        <time>2020-08-11T16:38:59Z</time>
      </trkpt>
      <trkpt lat="47.83339" lon="-2.95404">
        <ele>132.32</ele>
        <time>2020-08-11T16:39:01Z</time>
      </trkpt>
      <trkpt lat="47.83337" lon="-2.95392">
        <ele>132.8</ele>
        <time>2020-08-11T16:39:07Z</time>
      </trkpt>
      <trkpt lat="47.83336" lon="-2.95388">
        <ele>132.32</ele>
        <time>2020-08-11T16:39:09Z</time>
      </trkpt>
      <trkpt lat="47.83335" lon="-2.95384">
        <ele>132.32</ele>
        <time>2020-08-11T16:39:11Z</time>
      </trkpt>
      <trkpt lat="47.83333" lon="-2.95365">
        <ele>132.32</ele>
        <time>2020-08-11T16:39:19Z</time>
      </trkpt>
      <trkpt lat="47.83332" lon="-2.9536">
        <ele>132.32</ele>
        <time>2020-08-11T16:39:22Z</time>
      </trkpt>
      <trkpt lat="47.8333" lon="-2.95336">
        <ele>132.32</ele>
        <time>2020-08-11T16:39:35Z</time>
      </trkpt>
      <trkpt lat="47.83327" lon="-2.95326">
        <ele>133.76</ele>
        <time>2020-08-11T16:39:47Z</time>
      </trkpt>
      <trkpt lat="47.83321" lon="-2.95309">
        <ele>134.72</ele>
        <time>2020-08-11T16:39:57Z</time>
      </trkpt>
      <trkpt lat="47.83318" lon="-2.95293">
        <ele>135.2</ele>
        <time>2020-08-11T16:40:07Z</time>
      </trkpt>
      <trkpt lat="47.83314" lon="-2.95276">
        <ele>136.16</ele>
        <time>2020-08-11T16:40:17Z</time>
      </trkpt>
      <trkpt lat="47.83311" lon="-2.95265">
        <ele>137.13</ele>
        <time>2020-08-11T16:40:23Z</time>
      </trkpt>
      <trkpt lat="47.83308" lon="-2.95254">
        <ele>137.61</ele>
        <time>2020-08-11T16:40:27Z</time>
      </trkpt>
      <trkpt lat="47.83306" lon="-2.95241">
        <ele>137.61</ele>
        <time>2020-08-11T16:40:32Z</time>
      </trkpt>
      <trkpt lat="47.83303" lon="-2.95225">
        <ele>138.57</ele>
        <time>2020-08-11T16:40:41Z</time>
      </trkpt>
      <trkpt lat="47.833" lon="-2.95213">
        <ele>140.01</ele>
        <time>2020-08-11T16:40:48Z</time>
      </trkpt>
      <trkpt lat="47.83299" lon="-2.95208">
        <ele>140.01</ele>
        <time>2020-08-11T16:40:50Z</time>
      </trkpt>
      <trkpt lat="47.83298" lon="-2.95204">
        <ele>140.49</ele>
        <time>2020-08-11T16:40:52Z</time>
      </trkpt>
      <trkpt lat="47.83297" lon="-2.95185">
        <ele>140.49</ele>
        <time>2020-08-11T16:41:01Z</time>
      </trkpt>
      <trkpt lat="47.83297" lon="-2.95153">
        <ele>142.41</ele>
        <time>2020-08-11T16:41:15Z</time>
      </trkpt>
      <trkpt lat="47.83296" lon="-2.95147">
        <ele>142.89</ele>
        <time>2020-08-11T16:41:19Z</time>
      </trkpt>
      <trkpt lat="47.83294" lon="-2.95121">
        <ele>142.89</ele>
        <time>2020-08-11T16:41:34Z</time>
      </trkpt>
      <trkpt lat="47.83293" lon="-2.95115">
        <ele>142.89</ele>
        <time>2020-08-11T16:41:38Z</time>
      </trkpt>
      <trkpt lat="47.83292" lon="-2.9511">
        <ele>142.89</ele>
        <time>2020-08-11T16:41:40Z</time>
      </trkpt>
      <trkpt lat="47.83291" lon="-2.95088">
        <ele>142.89</ele>
        <time>2020-08-11T16:41:52Z</time>
      </trkpt>
      <trkpt lat="47.83287" lon="-2.95076">
        <ele>142.41</ele>
        <time>2020-08-11T16:41:59Z</time>
      </trkpt>
      <trkpt lat="47.83284" lon="-2.95058">
        <ele>140.97</ele>
        <time>2020-08-11T16:42:10Z</time>
      </trkpt>
      <trkpt lat="47.8328" lon="-2.95048">
        <ele>140.49</ele>
        <time>2020-08-11T16:42:20Z</time>
      </trkpt>
      <trkpt lat="47.83278" lon="-2.95021">
        <ele>139.53</ele>
        <time>2020-08-11T16:42:33Z</time>
      </trkpt>
      <trkpt lat="47.83277" lon="-2.95016">
        <ele>139.05</ele>
        <time>2020-08-11T16:42:36Z</time>
      </trkpt>
      <trkpt lat="47.83275" lon="-2.94997">
        <ele>138.09</ele>
        <time>2020-08-11T16:42:49Z</time>
      </trkpt>
      <trkpt lat="47.83272" lon="-2.94971">
        <ele>137.13</ele>
        <time>2020-08-11T16:43:03Z</time>
      </trkpt>
      <trkpt lat="47.83268" lon="-2.94961">
        <ele>135.68</ele>
        <time>2020-08-11T16:43:10Z</time>
      </trkpt>
      <trkpt lat="47.83264" lon="-2.94944">
        <ele>135.2</ele>
        <time>2020-08-11T16:43:24Z</time>
      </trkpt>
      <trkpt lat="47.83262" lon="-2.9493">
        <ele>134.24</ele>
        <time>2020-08-11T16:43:35Z</time>
      </trkpt>
      <trkpt lat="47.83259" lon="-2.94911">
        <ele>132.32</ele>
        <time>2020-08-11T16:43:46Z</time>
      </trkpt>
      <trkpt lat="47.83258" lon="-2.94905">
        <ele>132.32</ele>
        <time>2020-08-11T16:43:49Z</time>
      </trkpt>
      <trkpt lat="47.83256" lon="-2.94892">
        <ele>131.84</ele>
        <time>2020-08-11T16:43:55Z</time>
      </trkpt>
      <trkpt lat="47.83249" lon="-2.94873">
        <ele>130.88</ele>
        <time>2020-08-11T16:44:07Z</time>
      </trkpt>
      <trkpt lat="47.83243" lon="-2.9485">
        <ele>129.92</ele>
        <time>2020-08-11T16:44:21Z</time>
      </trkpt>
      <trkpt lat="47.83243" lon="-2.94848">
        <ele>129.92</ele>
        <time>2020-08-11T16:44:22Z</time>
      </trkpt>
      <trkpt lat="47.83239" lon="-2.94831">
        <ele>129.92</ele>
        <time>2020-08-11T16:44:32Z</time>
      </trkpt>
      <trkpt lat="47.83235" lon="-2.94805">
        <ele>129.43</ele>
        <time>2020-08-11T16:44:45Z</time>
      </trkpt>
      <trkpt lat="47.83235" lon="-2.94797">
        <ele>129.43</ele>
        <time>2020-08-11T16:44:49Z</time>
      </trkpt>
      <trkpt lat="47.83229" lon="-2.94779">
        <ele>129.92</ele>
        <time>2020-08-11T16:45:01Z</time>
      </trkpt>
      <trkpt lat="47.83229" lon="-2.94773">
        <ele>130.4</ele>
        <time>2020-08-11T16:45:04Z</time>
      </trkpt>
      <trkpt lat="47.83224" lon="-2.94756">
        <ele>130.88</ele>
        <time>2020-08-11T16:45:12Z</time>
      </trkpt>
      <trkpt lat="47.83223" lon="-2.94751">
        <ele>130.4</ele>
        <time>2020-08-11T16:45:14Z</time>
      </trkpt>
      <trkpt lat="47.83219" lon="-2.9473">
        <ele>130.88</ele>
        <time>2020-08-11T16:45:28Z</time>
      </trkpt>
      <trkpt lat="47.83216" lon="-2.94712">
        <ele>130.88</ele>
        <time>2020-08-11T16:45:40Z</time>
      </trkpt>
      <trkpt lat="47.83213" lon="-2.94693">
        <ele>130.4</ele>
        <time>2020-08-11T16:45:53Z</time>
      </trkpt>
      <trkpt lat="47.83212" lon="-2.94689">
        <ele>130.88</ele>
        <time>2020-08-11T16:45:56Z</time>
      </trkpt>
      <trkpt lat="47.8321" lon="-2.94686">
        <ele>130.88</ele>
        <time>2020-08-11T16:45:58Z</time>
      </trkpt>
      <trkpt lat="47.83203" lon="-2.94675">
        <ele>130.4</ele>
        <time>2020-08-11T16:46:10Z</time>
      </trkpt>
      <trkpt lat="47.83195" lon="-2.94678">
        <ele>129.92</ele>
        <time>2020-08-11T16:46:18Z</time>
      </trkpt>
      <trkpt lat="47.83185" lon="-2.94679">
        <ele>130.4</ele>
        <time>2020-08-11T16:46:29Z</time>
      </trkpt>
      <trkpt lat="47.83179" lon="-2.94667">
        <ele>130.4</ele>
        <time>2020-08-11T16:46:40Z</time>
      </trkpt>
      <trkpt lat="47.83171" lon="-2.9466">
        <ele>130.88</ele>
        <time>2020-08-11T16:46:50Z</time>
      </trkpt>
      <trkpt lat="47.83163" lon="-2.94648">
        <ele>131.36</ele>
        <time>2020-08-11T16:47:01Z</time>
      </trkpt>
      <trkpt lat="47.83153" lon="-2.94635">
        <ele>132.8</ele>
        <time>2020-08-11T16:47:14Z</time>
      </trkpt>
      <trkpt lat="47.83145" lon="-2.94613">
        <ele>134.24</ele>
        <time>2020-08-11T16:47:27Z</time>
      </trkpt>
      <trkpt lat="47.83134" lon="-2.94607">
        <ele>134.24</ele>
        <time>2020-08-11T16:47:44Z</time>
      </trkpt>
      <trkpt lat="47.83126" lon="-2.94591">
        <ele>136.16</ele>
        <time>2020-08-11T16:47:59Z</time>
      </trkpt>
      <trkpt lat="47.83123" lon="-2.94585">
        <ele>136.16</ele>
        <time>2020-08-11T16:48:03Z</time>
      </trkpt>
      <trkpt lat="47.83116" lon="-2.94572">
        <ele>136.16</ele>
        <time>2020-08-11T16:48:17Z</time>
      </trkpt>
      <trkpt lat="47.83114" lon="-2.94561">
        <ele>136.64</ele>
        <time>2020-08-11T16:48:27Z</time>
      </trkpt>
      <trkpt lat="47.83115" lon="-2.94552">
        <ele>136.64</ele>
        <time>2020-08-11T16:48:34Z</time>
      </trkpt>
      <trkpt lat="47.83117" lon="-2.9455">
        <ele>137.13</ele>
        <time>2020-08-11T16:48:36Z</time>
      </trkpt>
      <trkpt lat="47.8312" lon="-2.9455">
        <ele>137.13</ele>
        <time>2020-08-11T16:48:39Z</time>
      </trkpt>
      <trkpt lat="47.83125" lon="-2.94544">
        <ele>138.09</ele>
        <time>2020-08-11T16:48:46Z</time>
      </trkpt>
      <trkpt lat="47.83128" lon="-2.94538">
        <ele>139.53</ele>
        <time>2020-08-11T16:48:57Z</time>
      </trkpt>
      <trkpt lat="47.83129" lon="-2.94539">
        <ele>139.53</ele>
        <time>2020-08-11T16:48:59Z</time>
      </trkpt>
      <trkpt lat="47.83141" lon="-2.94536">
        <ele>140.97</ele>
        <time>2020-08-11T16:49:10Z</time>
      </trkpt>
      <trkpt lat="47.83141" lon="-2.94535">
        <ele>141.45</ele>
        <time>2020-08-11T16:49:13Z</time>
      </trkpt>
      <trkpt lat="47.8315" lon="-2.94533">
        <ele>143.37</ele>
        <time>2020-08-11T16:49:24Z</time>
      </trkpt>
      <trkpt lat="47.83166" lon="-2.94527">
        <ele>144.34</ele>
        <time>2020-08-11T16:49:35Z</time>
      </trkpt>
      <trkpt lat="47.83179" lon="-2.94515">
        <ele>146.26</ele>
        <time>2020-08-11T16:49:47Z</time>
      </trkpt>
      <trkpt lat="47.83181" lon="-2.94512">
        <ele>146.26</ele>
        <time>2020-08-11T16:49:50Z</time>
      </trkpt>
      <trkpt lat="47.83178" lon="-2.94492">
        <ele>147.22</ele>
        <time>2020-08-11T16:50:03Z</time>
      </trkpt>
      <trkpt lat="47.83175" lon="-2.9448">
        <ele>147.22</ele>
        <time>2020-08-11T16:50:15Z</time>
      </trkpt>
      <trkpt lat="47.83169" lon="-2.94462">
        <ele>148.18</ele>
        <time>2020-08-11T16:50:27Z</time>
      </trkpt>
      <trkpt lat="47.83168" lon="-2.94457">
        <ele>148.18</ele>
        <time>2020-08-11T16:50:30Z</time>
      </trkpt>
      <trkpt lat="47.83166" lon="-2.94442">
        <ele>148.18</ele>
        <time>2020-08-11T16:50:41Z</time>
      </trkpt>
      <trkpt lat="47.83166" lon="-2.94438">
        <ele>148.66</ele>
        <time>2020-08-11T16:50:44Z</time>
      </trkpt>
      <trkpt lat="47.8316" lon="-2.94408">
        <ele>148.66</ele>
        <time>2020-08-11T16:51:00Z</time>
      </trkpt>
      <trkpt lat="47.83155" lon="-2.9439">
        <ele>147.7</ele>
        <time>2020-08-11T16:51:14Z</time>
      </trkpt>
      <trkpt lat="47.8315" lon="-2.94373">
        <ele>147.22</ele>
        <time>2020-08-11T16:51:26Z</time>
      </trkpt>
      <trkpt lat="47.83149" lon="-2.94368">
        <ele>146.74</ele>
        <time>2020-08-11T16:51:32Z</time>
      </trkpt>
      <trkpt lat="47.83144" lon="-2.94352">
        <ele>145.3</ele>
        <time>2020-08-11T16:51:44Z</time>
      </trkpt>
      <trkpt lat="47.83144" lon="-2.94346">
        <ele>145.3</ele>
        <time>2020-08-11T16:51:47Z</time>
      </trkpt>
      <trkpt lat="47.8314" lon="-2.94322">
        <ele>143.37</ele>
        <time>2020-08-11T16:52:02Z</time>
      </trkpt>
      <trkpt lat="47.83138" lon="-2.94302">
        <ele>142.89</ele>
        <time>2020-08-11T16:52:11Z</time>
      </trkpt>
      <trkpt lat="47.83135" lon="-2.94288">
        <ele>142.41</ele>
        <time>2020-08-11T16:52:19Z</time>
      </trkpt>
      <trkpt lat="47.83131" lon="-2.94259">
        <ele>140.97</ele>
        <time>2020-08-11T16:52:32Z</time>
      </trkpt>
      <trkpt lat="47.8313" lon="-2.94256">
        <ele>140.97</ele>
        <time>2020-08-11T16:52:34Z</time>
      </trkpt>
      <trkpt lat="47.83123" lon="-2.94236">
        <ele>140.49</ele>
        <time>2020-08-11T16:52:47Z</time>
      </trkpt>
      <trkpt lat="47.8312" lon="-2.94233">
        <ele>140.49</ele>
        <time>2020-08-11T16:52:52Z</time>
      </trkpt>
      <trkpt lat="47.83113" lon="-2.94221">
        <ele>140.97</ele>
        <time>2020-08-11T16:53:04Z</time>
      </trkpt>
      <trkpt lat="47.83105" lon="-2.94221">
        <ele>141.45</ele>
        <time>2020-08-11T16:53:16Z</time>
      </trkpt>
      <trkpt lat="47.83087" lon="-2.94222">
        <ele>141.93</ele>
        <time>2020-08-11T16:53:32Z</time>
      </trkpt>
      <trkpt lat="47.83073" lon="-2.94225">
        <ele>142.41</ele>
        <time>2020-08-11T16:53:42Z</time>
      </trkpt>
      <trkpt lat="47.83066" lon="-2.94226">
        <ele>142.89</ele>
        <time>2020-08-11T16:53:46Z</time>
      </trkpt>
      <trkpt lat="47.83052" lon="-2.94202">
        <ele>143.37</ele>
        <time>2020-08-11T16:53:56Z</time>
      </trkpt>
      <trkpt lat="47.83043" lon="-2.94148">
        <ele>144.34</ele>
        <time>2020-08-11T16:54:09Z</time>
      </trkpt>
      <trkpt lat="47.83025" lon="-2.94138">
        <ele>144.82</ele>
        <time>2020-08-11T16:54:23Z</time>
      </trkpt>
      <trkpt lat="47.83011" lon="-2.94138">
        <ele>145.3</ele>
        <time>2020-08-11T16:54:29Z</time>
      </trkpt>
      <trkpt lat="47.82996" lon="-2.94141">
        <ele>145.78</ele>
        <time>2020-08-11T16:54:43Z</time>
      </trkpt>
      <trkpt lat="47.82981" lon="-2.94139">
        <ele>146.26</ele>
        <time>2020-08-11T16:54:54Z</time>
      </trkpt>
      <trkpt lat="47.8297" lon="-2.94138">
        <ele>147.22</ele>
        <time>2020-08-11T16:55:06Z</time>
      </trkpt>
      <trkpt lat="47.8296" lon="-2.94138">
        <ele>148.18</ele>
        <time>2020-08-11T16:55:19Z</time>
      </trkpt>
      <trkpt lat="47.82959" lon="-2.94138">
        <ele>148.18</ele>
        <time>2020-08-11T16:55:20Z</time>
      </trkpt>
      <trkpt lat="47.82953" lon="-2.94137">
        <ele>148.18</ele>
        <time>2020-08-11T16:55:25Z</time>
      </trkpt>
      <trkpt lat="47.82937" lon="-2.94145">
        <ele>149.14</ele>
        <time>2020-08-11T16:55:39Z</time>
      </trkpt>
      <trkpt lat="47.82926" lon="-2.94142">
        <ele>149.62</ele>
        <time>2020-08-11T16:55:51Z</time>
      </trkpt>
      <trkpt lat="47.82915" lon="-2.94142">
        <ele>150.58</ele>
        <time>2020-08-11T16:56:04Z</time>
      </trkpt>
      <trkpt lat="47.82911" lon="-2.9414">
        <ele>151.06</ele>
        <time>2020-08-11T16:56:08Z</time>
      </trkpt>
      <trkpt lat="47.82909" lon="-2.9414">
        <ele>150.58</ele>
        <time>2020-08-11T16:56:10Z</time>
      </trkpt>
      <trkpt lat="47.8289" lon="-2.94142">
        <ele>151.54</ele>
        <time>2020-08-11T16:56:23Z</time>
      </trkpt>
      <trkpt lat="47.82884" lon="-2.94143">
        <ele>152.51</ele>
        <time>2020-08-11T16:56:29Z</time>
      </trkpt>
      <trkpt lat="47.82871" lon="-2.94145">
        <ele>152.99</ele>
        <time>2020-08-11T16:56:37Z</time>
      </trkpt>
      <trkpt lat="47.82855" lon="-2.94145">
        <ele>152.99</ele>
        <time>2020-08-11T16:56:50Z</time>
      </trkpt>
      <trkpt lat="47.82848" lon="-2.94143">
        <ele>153.47</ele>
        <time>2020-08-11T16:56:59Z</time>
      </trkpt>
      <trkpt lat="47.82841" lon="-2.94142">
        <ele>153.95</ele>
        <time>2020-08-11T16:57:05Z</time>
      </trkpt>
      <trkpt lat="47.82832" lon="-2.94144">
        <ele>153.95</ele>
        <time>2020-08-11T16:57:11Z</time>
      </trkpt>
      <trkpt lat="47.82813" lon="-2.94151">
        <ele>154.43</ele>
        <time>2020-08-11T16:57:26Z</time>
      </trkpt>
      <trkpt lat="47.828" lon="-2.94156">
        <ele>154.43</ele>
        <time>2020-08-11T16:57:38Z</time>
      </trkpt>
      <trkpt lat="47.82787" lon="-2.94159">
        <ele>154.43</ele>
        <time>2020-08-11T16:57:51Z</time>
      </trkpt>
      <trkpt lat="47.82779" lon="-2.94161">
        <ele>154.91</ele>
        <time>2020-08-11T16:57:56Z</time>
      </trkpt>
      <trkpt lat="47.82767" lon="-2.94161">
        <ele>154.91</ele>
        <time>2020-08-11T16:58:02Z</time>
      </trkpt>
      <trkpt lat="47.82755" lon="-2.94165">
        <ele>154.43</ele>
        <time>2020-08-11T16:58:12Z</time>
      </trkpt>
      <trkpt lat="47.82752" lon="-2.94173">
        <ele>154.43</ele>
        <time>2020-08-11T16:58:23Z</time>
      </trkpt>
      <trkpt lat="47.82744" lon="-2.94186">
        <ele>154.91</ele>
        <time>2020-08-11T16:58:34Z</time>
      </trkpt>
      <trkpt lat="47.82744" lon="-2.94212">
        <ele>154.43</ele>
        <time>2020-08-11T16:58:47Z</time>
      </trkpt>
      <trkpt lat="47.82748" lon="-2.94235">
        <ele>155.39</ele>
        <time>2020-08-11T16:59:00Z</time>
      </trkpt>
      <trkpt lat="47.8275" lon="-2.94251">
        <ele>155.39</ele>
        <time>2020-08-11T16:59:12Z</time>
      </trkpt>
      <trkpt lat="47.8275" lon="-2.94253">
        <ele>155.87</ele>
        <time>2020-08-11T16:59:13Z</time>
      </trkpt>
      <trkpt lat="47.82758" lon="-2.94274">
        <ele>155.87</ele>
        <time>2020-08-11T16:59:25Z</time>
      </trkpt>
      <trkpt lat="47.82764" lon="-2.94291">
        <ele>155.87</ele>
        <time>2020-08-11T16:59:35Z</time>
      </trkpt>
      <trkpt lat="47.82765" lon="-2.94295">
        <ele>154.91</ele>
        <time>2020-08-11T16:59:37Z</time>
      </trkpt>
      <trkpt lat="47.82775" lon="-2.9432">
        <ele>155.39</ele>
        <time>2020-08-11T16:59:50Z</time>
      </trkpt>
      <trkpt lat="47.82777" lon="-2.94325">
        <ele>155.39</ele>
        <time>2020-08-11T16:59:52Z</time>
      </trkpt>
      <trkpt lat="47.82781" lon="-2.94329">
        <ele>155.39</ele>
        <time>2020-08-11T16:59:54Z</time>
      </trkpt>
      <trkpt lat="47.82783" lon="-2.94333">
        <ele>155.39</ele>
        <time>2020-08-11T16:59:57Z</time>
      </trkpt>
      <trkpt lat="47.82786" lon="-2.94351">
        <ele>155.87</ele>
        <time>2020-08-11T17:00:09Z</time>
      </trkpt>
      <trkpt lat="47.82787" lon="-2.94367">
        <ele>155.87</ele>
        <time>2020-08-11T17:00:21Z</time>
      </trkpt>
      <trkpt lat="47.82791" lon="-2.94381">
        <ele>155.87</ele>
        <time>2020-08-11T17:00:31Z</time>
      </trkpt>
      <trkpt lat="47.82793" lon="-2.94393">
        <ele>156.35</ele>
        <time>2020-08-11T17:00:42Z</time>
      </trkpt>
      <trkpt lat="47.82795" lon="-2.94409">
        <ele>155.39</ele>
        <time>2020-08-11T17:00:53Z</time>
      </trkpt>
      <trkpt lat="47.82802" lon="-2.94426">
        <ele>154.91</ele>
        <time>2020-08-11T17:01:03Z</time>
      </trkpt>
      <trkpt lat="47.82806" lon="-2.94439">
        <ele>154.91</ele>
        <time>2020-08-11T17:01:14Z</time>
      </trkpt>
      <trkpt lat="47.8281" lon="-2.94453">
        <ele>155.39</ele>
        <time>2020-08-11T17:01:24Z</time>
      </trkpt>
      <trkpt lat="47.82819" lon="-2.94478">
        <ele>155.39</ele>
        <time>2020-08-11T17:01:36Z</time>
      </trkpt>
      <trkpt lat="47.82828" lon="-2.94505">
        <ele>155.87</ele>
        <time>2020-08-11T17:01:48Z</time>
      </trkpt>
      <trkpt lat="47.82839" lon="-2.94537">
        <ele>156.35</ele>
        <time>2020-08-11T17:02:02Z</time>
      </trkpt>
      <trkpt lat="47.82843" lon="-2.94541">
        <ele>156.83</ele>
        <time>2020-08-11T17:02:05Z</time>
      </trkpt>
      <trkpt lat="47.82846" lon="-2.94556">
        <ele>156.35</ele>
        <time>2020-08-11T17:02:15Z</time>
      </trkpt>
      <trkpt lat="47.82846" lon="-2.94562">
        <ele>156.35</ele>
        <time>2020-08-11T17:02:19Z</time>
      </trkpt>
      <trkpt lat="47.82854" lon="-2.94577">
        <ele>157.31</ele>
        <time>2020-08-11T17:02:29Z</time>
      </trkpt>
      <trkpt lat="47.82858" lon="-2.94597">
        <ele>157.31</ele>
        <time>2020-08-11T17:02:39Z</time>
      </trkpt>
      <trkpt lat="47.82865" lon="-2.94615">
        <ele>158.27</ele>
        <time>2020-08-11T17:02:49Z</time>
      </trkpt>
      <trkpt lat="47.82866" lon="-2.94627">
        <ele>157.79</ele>
        <time>2020-08-11T17:02:54Z</time>
      </trkpt>
      <trkpt lat="47.82868" lon="-2.94634">
        <ele>157.79</ele>
        <time>2020-08-11T17:02:57Z</time>
      </trkpt>
      <trkpt lat="47.82877" lon="-2.94659">
        <ele>157.79</ele>
        <time>2020-08-11T17:03:09Z</time>
      </trkpt>
      <trkpt lat="47.82878" lon="-2.94662">
        <ele>157.31</ele>
        <time>2020-08-11T17:03:11Z</time>
      </trkpt>
      <trkpt lat="47.82884" lon="-2.94676">
        <ele>157.31</ele>
        <time>2020-08-11T17:03:21Z</time>
      </trkpt>
      <trkpt lat="47.82888" lon="-2.94696">
        <ele>156.83</ele>
        <time>2020-08-11T17:03:33Z</time>
      </trkpt>
      <trkpt lat="47.82891" lon="-2.94717">
        <ele>156.35</ele>
        <time>2020-08-11T17:03:46Z</time>
      </trkpt>
      <trkpt lat="47.82897" lon="-2.94725">
        <ele>155.87</ele>
        <time>2020-08-11T17:03:53Z</time>
      </trkpt>
      <trkpt lat="47.82901" lon="-2.94738">
        <ele>155.87</ele>
        <time>2020-08-11T17:04:01Z</time>
      </trkpt>
      <trkpt lat="47.82903" lon="-2.94749">
        <ele>155.87</ele>
        <time>2020-08-11T17:04:08Z</time>
      </trkpt>
      <trkpt lat="47.82911" lon="-2.94769">
        <ele>156.35</ele>
        <time>2020-08-11T17:04:19Z</time>
      </trkpt>
      <trkpt lat="47.82914" lon="-2.94779">
        <ele>156.35</ele>
        <time>2020-08-11T17:04:24Z</time>
      </trkpt>
      <trkpt lat="47.82917" lon="-2.94802">
        <ele>157.31</ele>
        <time>2020-08-11T17:04:36Z</time>
      </trkpt>
      <trkpt lat="47.82923" lon="-2.94819">
        <ele>157.79</ele>
        <time>2020-08-11T17:04:44Z</time>
      </trkpt>
      <trkpt lat="47.82926" lon="-2.94827">
        <ele>157.79</ele>
        <time>2020-08-11T17:04:50Z</time>
      </trkpt>
      <trkpt lat="47.82929" lon="-2.94835">
        <ele>157.79</ele>
        <time>2020-08-11T17:04:55Z</time>
      </trkpt>
      <trkpt lat="47.82933" lon="-2.94845">
        <ele>158.27</ele>
        <time>2020-08-11T17:05:02Z</time>
      </trkpt>
      <trkpt lat="47.82934" lon="-2.94851">
        <ele>158.27</ele>
        <time>2020-08-11T17:05:05Z</time>
      </trkpt>
      <trkpt lat="47.8294" lon="-2.94868">
        <ele>158.27</ele>
        <time>2020-08-11T17:05:13Z</time>
      </trkpt>
      <trkpt lat="47.82944" lon="-2.94879">
        <ele>158.75</ele>
        <time>2020-08-11T17:05:19Z</time>
      </trkpt>
      <trkpt lat="47.82949" lon="-2.94887">
        <ele>158.27</ele>
        <time>2020-08-11T17:05:22Z</time>
      </trkpt>
      <trkpt lat="47.82955" lon="-2.949">
        <ele>158.27</ele>
        <time>2020-08-11T17:05:31Z</time>
      </trkpt>
      <trkpt lat="47.82956" lon="-2.94904">
        <ele>158.27</ele>
        <time>2020-08-11T17:05:33Z</time>
      </trkpt>
      <trkpt lat="47.82958" lon="-2.94912">
        <ele>158.27</ele>
        <time>2020-08-11T17:05:38Z</time>
      </trkpt>
      <trkpt lat="47.82959" lon="-2.94914">
        <ele>158.27</ele>
        <time>2020-08-11T17:05:40Z</time>
      </trkpt>
      <trkpt lat="47.82963" lon="-2.94928">
        <ele>158.27</ele>
        <time>2020-08-11T17:05:51Z</time>
      </trkpt>
      <trkpt lat="47.82965" lon="-2.9494">
        <ele>158.75</ele>
        <time>2020-08-11T17:06:01Z</time>
      </trkpt>
      <trkpt lat="47.82977" lon="-2.94959">
        <ele>158.75</ele>
        <time>2020-08-11T17:06:14Z</time>
      </trkpt>
      <trkpt lat="47.8299" lon="-2.94976">
        <ele>159.24</ele>
        <time>2020-08-11T17:06:33Z</time>
      </trkpt>
      <trkpt lat="47.82987" lon="-2.94981">
        <ele>158.75</ele>
        <time>2020-08-11T17:06:45Z</time>
      </trkpt>
      <trkpt lat="47.82985" lon="-2.94995">
        <ele>158.75</ele>
        <time>2020-08-11T17:06:56Z</time>
      </trkpt>
      <trkpt lat="47.82984" lon="-2.95016">
        <ele>159.72</ele>
        <time>2020-08-11T17:07:09Z</time>
      </trkpt>
      <trkpt lat="47.82987" lon="-2.95034">
        <ele>159.72</ele>
        <time>2020-08-11T17:07:26Z</time>
      </trkpt>
      <trkpt lat="47.82992" lon="-2.95059">
        <ele>159.72</ele>
        <time>2020-08-11T17:07:39Z</time>
      </trkpt>
      <trkpt lat="47.82992" lon="-2.95065">
        <ele>159.72</ele>
        <time>2020-08-11T17:07:50Z</time>
      </trkpt>
      <trkpt lat="47.83002" lon="-2.95093">
        <ele>160.68</ele>
        <time>2020-08-11T17:08:05Z</time>
      </trkpt>
      <trkpt lat="47.83011" lon="-2.95117">
        <ele>161.16</ele>
        <time>2020-08-11T17:08:19Z</time>
      </trkpt>
      <trkpt lat="47.83019" lon="-2.95144">
        <ele>161.16</ele>
        <time>2020-08-11T17:08:32Z</time>
      </trkpt>
      <trkpt lat="47.83024" lon="-2.95162">
        <ele>161.16</ele>
        <time>2020-08-11T17:08:46Z</time>
      </trkpt>
      <trkpt lat="47.83029" lon="-2.95182">
        <ele>161.16</ele>
        <time>2020-08-11T17:08:59Z</time>
      </trkpt>
      <trkpt lat="47.83031" lon="-2.95188">
        <ele>161.64</ele>
        <time>2020-08-11T17:09:04Z</time>
      </trkpt>
      <trkpt lat="47.83037" lon="-2.95212">
        <ele>162.12</ele>
        <time>2020-08-11T17:09:16Z</time>
      </trkpt>
      <trkpt lat="47.8305" lon="-2.95245">
        <ele>162.12</ele>
        <time>2020-08-11T17:09:30Z</time>
      </trkpt>
      <trkpt lat="47.83052" lon="-2.9525">
        <ele>161.64</ele>
        <time>2020-08-11T17:09:33Z</time>
      </trkpt>
      <trkpt lat="47.83054" lon="-2.95263">
        <ele>162.12</ele>
        <time>2020-08-11T17:09:47Z</time>
      </trkpt>
      <trkpt lat="47.83059" lon="-2.95276">
        <ele>162.12</ele>
        <time>2020-08-11T17:10:00Z</time>
      </trkpt>
      <trkpt lat="47.83064" lon="-2.95297">
        <ele>161.64</ele>
        <time>2020-08-11T17:10:13Z</time>
      </trkpt>
      <trkpt lat="47.83066" lon="-2.95311">
        <ele>161.64</ele>
        <time>2020-08-11T17:10:20Z</time>
      </trkpt>
      <trkpt lat="47.8307" lon="-2.95336">
        <ele>160.68</ele>
        <time>2020-08-11T17:10:34Z</time>
      </trkpt>
      <trkpt lat="47.83072" lon="-2.95346">
        <ele>161.16</ele>
        <time>2020-08-11T17:10:40Z</time>
      </trkpt>
      <trkpt lat="47.83075" lon="-2.95365">
        <ele>160.68</ele>
        <time>2020-08-11T17:10:51Z</time>
      </trkpt>
      <trkpt lat="47.83082" lon="-2.95392">
        <ele>159.72</ele>
        <time>2020-08-11T17:11:04Z</time>
      </trkpt>
      <trkpt lat="47.83082" lon="-2.95399">
        <ele>159.72</ele>
        <time>2020-08-11T17:11:06Z</time>
      </trkpt>
      <trkpt lat="47.83083" lon="-2.95412">
        <ele>159.24</ele>
        <time>2020-08-11T17:11:12Z</time>
      </trkpt>
      <trkpt lat="47.83087" lon="-2.95435">
        <ele>159.24</ele>
        <time>2020-08-11T17:11:24Z</time>
      </trkpt>
      <trkpt lat="47.83093" lon="-2.95458">
        <ele>158.27</ele>
        <time>2020-08-11T17:11:36Z</time>
      </trkpt>
      <trkpt lat="47.83095" lon="-2.95472">
        <ele>158.27</ele>
        <time>2020-08-11T17:11:46Z</time>
      </trkpt>
      <trkpt lat="47.83099" lon="-2.95486">
        <ele>157.79</ele>
        <time>2020-08-11T17:11:56Z</time>
      </trkpt>
      <trkpt lat="47.83102" lon="-2.95509">
        <ele>157.79</ele>
        <time>2020-08-11T17:12:09Z</time>
      </trkpt>
      <trkpt lat="47.83101" lon="-2.95522">
        <ele>157.79</ele>
        <time>2020-08-11T17:12:21Z</time>
      </trkpt>
      <trkpt lat="47.831" lon="-2.95539">
        <ele>158.27</ele>
        <time>2020-08-11T17:12:43Z</time>
      </trkpt>
      <trkpt lat="47.83109" lon="-2.95558">
        <ele>158.27</ele>
        <time>2020-08-11T17:12:58Z</time>
      </trkpt>
      <trkpt lat="47.83119" lon="-2.95561">
        <ele>157.79</ele>
        <time>2020-08-11T17:13:09Z</time>
      </trkpt>
      <trkpt lat="47.83122" lon="-2.95553">
        <ele>158.27</ele>
        <time>2020-08-11T17:13:31Z</time>
      </trkpt>
      <trkpt lat="47.83118" lon="-2.95539">
        <ele>158.75</ele>
        <time>2020-08-11T17:13:42Z</time>
      </trkpt>
      <trkpt lat="47.83114" lon="-2.95534">
        <ele>158.75</ele>
        <time>2020-08-11T17:13:52Z</time>
      </trkpt>
      <trkpt lat="47.83111" lon="-2.95522">
        <ele>159.24</ele>
        <time>2020-08-11T17:14:02Z</time>
      </trkpt>
      <trkpt lat="47.83111" lon="-2.9552">
        <ele>159.24</ele>
        <time>2020-08-11T17:14:05Z</time>
      </trkpt>
      <trkpt lat="47.83106" lon="-2.95498">
        <ele>159.72</ele>
        <time>2020-08-11T17:14:18Z</time>
      </trkpt>
      <trkpt lat="47.83105" lon="-2.95495">
        <ele>159.72</ele>
        <time>2020-08-11T17:14:20Z</time>
      </trkpt>
      <trkpt lat="47.83103" lon="-2.95474">
        <ele>160.2</ele>
        <time>2020-08-11T17:14:31Z</time>
      </trkpt>
      <trkpt lat="47.831" lon="-2.95457">
        <ele>160.68</ele>
        <time>2020-08-11T17:14:42Z</time>
      </trkpt>
      <trkpt lat="47.83096" lon="-2.95446">
        <ele>161.64</ele>
        <time>2020-08-11T17:14:54Z</time>
      </trkpt>
      <trkpt lat="47.83093" lon="-2.95427">
        <ele>162.12</ele>
        <time>2020-08-11T17:15:05Z</time>
      </trkpt>
      <trkpt lat="47.83088" lon="-2.95403">
        <ele>162.12</ele>
        <time>2020-08-11T17:15:16Z</time>
      </trkpt>
      <trkpt lat="47.83086" lon="-2.95377">
        <ele>162.6</ele>
        <time>2020-08-11T17:15:27Z</time>
      </trkpt>
      <trkpt lat="47.83087" lon="-2.95367">
        <ele>162.6</ele>
        <time>2020-08-11T17:15:32Z</time>
      </trkpt>
      <trkpt lat="47.83088" lon="-2.95349">
        <ele>162.6</ele>
        <time>2020-08-11T17:15:42Z</time>
      </trkpt>
      <trkpt lat="47.83088" lon="-2.95341">
        <ele>163.08</ele>
        <time>2020-08-11T17:15:51Z</time>
      </trkpt>
      <trkpt lat="47.83094" lon="-2.95332">
        <ele>163.08</ele>
        <time>2020-08-11T17:16:03Z</time>
      </trkpt>
      <trkpt lat="47.83101" lon="-2.95327">
        <ele>163.56</ele>
        <time>2020-08-11T17:16:14Z</time>
      </trkpt>
      <trkpt lat="47.83111" lon="-2.95324">
        <ele>164.04</ele>
        <time>2020-08-11T17:16:23Z</time>
      </trkpt>
      <trkpt lat="47.83119" lon="-2.95322">
        <ele>163.56</ele>
        <time>2020-08-11T17:16:29Z</time>
      </trkpt>
      <trkpt lat="47.83135" lon="-2.95317">
        <ele>163.08</ele>
        <time>2020-08-11T17:16:40Z</time>
      </trkpt>
      <trkpt lat="47.83146" lon="-2.9531">
        <ele>163.08</ele>
        <time>2020-08-11T17:16:50Z</time>
      </trkpt>
      <trkpt lat="47.83158" lon="-2.95304">
        <ele>162.6</ele>
        <time>2020-08-11T17:16:58Z</time>
      </trkpt>
      <trkpt lat="47.8316" lon="-2.95302">
        <ele>162.12</ele>
        <time>2020-08-11T17:17:00Z</time>
      </trkpt>
      <trkpt lat="47.83178" lon="-2.9529">
        <ele>160.68</ele>
        <time>2020-08-11T17:17:13Z</time>
      </trkpt>
      <trkpt lat="47.83195" lon="-2.95279">
        <ele>159.72</ele>
        <time>2020-08-11T17:17:26Z</time>
      </trkpt>
      <trkpt lat="47.83209" lon="-2.95249">
        <ele>154.91</ele>
        <time>2020-08-11T17:17:39Z</time>
      </trkpt>
      <trkpt lat="47.8321" lon="-2.95248">
        <ele>156.83</ele>
        <time>2020-08-11T17:17:40Z</time>
      </trkpt>
      <trkpt lat="47.83211" lon="-2.95247">
        <ele>157.31</ele>
        <time>2020-08-11T17:18:09Z</time>
      </trkpt>
      <trkpt lat="47.83214" lon="-2.95248">
        <ele>158.27</ele>
        <time>2020-08-11T17:18:39Z</time>
      </trkpt>
      <trkpt lat="47.83225" lon="-2.95242">
        <ele>157.79</ele>
        <time>2020-08-11T17:18:51Z</time>
      </trkpt>
      <trkpt lat="47.83227" lon="-2.95241">
        <ele>157.31</ele>
        <time>2020-08-11T17:18:53Z</time>
      </trkpt>
      <trkpt lat="47.8324" lon="-2.95233">
        <ele>155.87</ele>
        <time>2020-08-11T17:19:05Z</time>
      </trkpt>
      <trkpt lat="47.83248" lon="-2.95232">
        <ele>154.91</ele>
        <time>2020-08-11T17:19:15Z</time>
      </trkpt>
      <trkpt lat="47.83252" lon="-2.95231">
        <ele>154.43</ele>
        <time>2020-08-11T17:19:18Z</time>
      </trkpt>
      <trkpt lat="47.83254" lon="-2.95232">
        <ele>154.91</ele>
        <time>2020-08-11T17:19:20Z</time>
      </trkpt>
      <trkpt lat="47.83278" lon="-2.95234">
        <ele>153.95</ele>
        <time>2020-08-11T17:19:31Z</time>
      </trkpt>
      <trkpt lat="47.83283" lon="-2.95234">
        <ele>153.95</ele>
        <time>2020-08-11T17:19:34Z</time>
      </trkpt>
      <trkpt lat="47.8329" lon="-2.95221">
        <ele>152.51</ele>
        <time>2020-08-11T17:19:38Z</time>
      </trkpt>
      <trkpt lat="47.83294" lon="-2.9522">
        <ele>152.99</ele>
        <time>2020-08-11T17:19:41Z</time>
      </trkpt>
      <trkpt lat="47.83301" lon="-2.95208">
        <ele>151.54</ele>
        <time>2020-08-11T17:19:44Z</time>
      </trkpt>
      <trkpt lat="47.83306" lon="-2.95202">
        <ele>151.54</ele>
        <time>2020-08-11T17:19:51Z</time>
      </trkpt>
      <trkpt lat="47.83308" lon="-2.95219">
        <ele>150.1</ele>
        <time>2020-08-11T17:20:06Z</time>
      </trkpt>
      <trkpt lat="47.83312" lon="-2.95231">
        <ele>149.14</ele>
        <time>2020-08-11T17:20:17Z</time>
      </trkpt>
      <trkpt lat="47.83315" lon="-2.95245">
        <ele>149.14</ele>
        <time>2020-08-11T17:20:28Z</time>
      </trkpt>
      <trkpt lat="47.83317" lon="-2.95265">
        <ele>149.14</ele>
        <time>2020-08-11T17:20:37Z</time>
      </trkpt>
      <trkpt lat="47.83319" lon="-2.95274">
        <ele>149.62</ele>
        <time>2020-08-11T17:20:40Z</time>
      </trkpt>
      <trkpt lat="47.83328" lon="-2.95299">
        <ele>149.62</ele>
        <time>2020-08-11T17:20:48Z</time>
      </trkpt>
      <trkpt lat="47.83332" lon="-2.95325">
        <ele>149.62</ele>
        <time>2020-08-11T17:21:02Z</time>
      </trkpt>
      <trkpt lat="47.83337" lon="-2.9535">
        <ele>149.14</ele>
        <time>2020-08-11T17:21:14Z</time>
      </trkpt>
      <trkpt lat="47.83339" lon="-2.95359">
        <ele>149.14</ele>
        <time>2020-08-11T17:21:19Z</time>
      </trkpt>
      <trkpt lat="47.83338" lon="-2.95366">
        <ele>148.66</ele>
        <time>2020-08-11T17:21:24Z</time>
      </trkpt>
      <trkpt lat="47.83339" lon="-2.95372">
        <ele>148.18</ele>
        <time>2020-08-11T17:21:28Z</time>
      </trkpt>
      <trkpt lat="47.83344" lon="-2.95395">
        <ele>147.7</ele>
        <time>2020-08-11T17:21:42Z</time>
      </trkpt>
      <trkpt lat="47.83348" lon="-2.95417">
        <ele>146.26</ele>
        <time>2020-08-11T17:21:54Z</time>
      </trkpt>
      <trkpt lat="47.83351" lon="-2.9543">
        <ele>145.3</ele>
        <time>2020-08-11T17:22:05Z</time>
      </trkpt>
      <trkpt lat="47.83352" lon="-2.95441">
        <ele>143.85</ele>
        <time>2020-08-11T17:22:15Z</time>
      </trkpt>
      <trkpt lat="47.83351" lon="-2.95449">
        <ele>143.85</ele>
        <time>2020-08-11T17:22:18Z</time>
      </trkpt>
      <trkpt lat="47.83353" lon="-2.95477">
        <ele>143.37</ele>
        <time>2020-08-11T17:22:31Z</time>
      </trkpt>
      <trkpt lat="47.83357" lon="-2.955">
        <ele>143.37</ele>
        <time>2020-08-11T17:22:43Z</time>
      </trkpt>
      <trkpt lat="47.83358" lon="-2.95513">
        <ele>142.89</ele>
        <time>2020-08-11T17:22:53Z</time>
      </trkpt>
      <trkpt lat="47.83365" lon="-2.95539">
        <ele>143.85</ele>
        <time>2020-08-11T17:23:05Z</time>
      </trkpt>
      <trkpt lat="47.83373" lon="-2.95557">
        <ele>143.85</ele>
        <time>2020-08-11T17:23:19Z</time>
      </trkpt>
      <trkpt lat="47.83374" lon="-2.95558">
        <ele>143.37</ele>
        <time>2020-08-11T17:23:21Z</time>
      </trkpt>
      <trkpt lat="47.83377" lon="-2.95574">
        <ele>143.85</ele>
        <time>2020-08-11T17:23:33Z</time>
      </trkpt>
      <trkpt lat="47.83384" lon="-2.95609">
        <ele>143.37</ele>
        <time>2020-08-11T17:23:44Z</time>
      </trkpt>
      <trkpt lat="47.83393" lon="-2.95643">
        <ele>143.85</ele>
        <time>2020-08-11T17:23:59Z</time>
      </trkpt>
      <trkpt lat="47.83396" lon="-2.95667">
        <ele>143.85</ele>
        <time>2020-08-11T17:24:11Z</time>
      </trkpt>
      <trkpt lat="47.83405" lon="-2.95693">
        <ele>144.34</ele>
        <time>2020-08-11T17:24:24Z</time>
      </trkpt>
      <trkpt lat="47.83406" lon="-2.95697">
        <ele>144.34</ele>
        <time>2020-08-11T17:24:26Z</time>
      </trkpt>
      <trkpt lat="47.83413" lon="-2.95725">
        <ele>144.82</ele>
        <time>2020-08-11T17:24:40Z</time>
      </trkpt>
      <trkpt lat="47.83418" lon="-2.95741">
        <ele>145.3</ele>
        <time>2020-08-11T17:24:50Z</time>
      </trkpt>
      <trkpt lat="47.83419" lon="-2.95754">
        <ele>146.26</ele>
        <time>2020-08-11T17:25:01Z</time>
      </trkpt>
      <trkpt lat="47.83427" lon="-2.95787">
        <ele>146.26</ele>
        <time>2020-08-11T17:25:16Z</time>
      </trkpt>
      <trkpt lat="47.83433" lon="-2.95804">
        <ele>146.74</ele>
        <time>2020-08-11T17:25:27Z</time>
      </trkpt>
      <trkpt lat="47.83436" lon="-2.95817">
        <ele>147.22</ele>
        <time>2020-08-11T17:25:35Z</time>
      </trkpt>
      <trkpt lat="47.8344" lon="-2.9584">
        <ele>147.22</ele>
        <time>2020-08-11T17:25:50Z</time>
      </trkpt>
      <trkpt lat="47.83445" lon="-2.95858">
        <ele>148.66</ele>
        <time>2020-08-11T17:26:01Z</time>
      </trkpt>
      <trkpt lat="47.83451" lon="-2.95891">
        <ele>149.62</ele>
        <time>2020-08-11T17:26:12Z</time>
      </trkpt>
      <trkpt lat="47.83453" lon="-2.95902">
        <ele>150.1</ele>
        <time>2020-08-11T17:26:24Z</time>
      </trkpt>
      <trkpt lat="47.83455" lon="-2.95915">
        <ele>150.1</ele>
        <time>2020-08-11T17:26:36Z</time>
      </trkpt>
      <trkpt lat="47.83457" lon="-2.95935">
        <ele>150.1</ele>
        <time>2020-08-11T17:26:49Z</time>
      </trkpt>
      <trkpt lat="47.8346" lon="-2.95951">
        <ele>150.1</ele>
        <time>2020-08-11T17:26:59Z</time>
      </trkpt>
      <trkpt lat="47.83464" lon="-2.95977">
        <ele>149.62</ele>
        <time>2020-08-11T17:27:12Z</time>
      </trkpt>
      <trkpt lat="47.83468" lon="-2.95999">
        <ele>149.62</ele>
        <time>2020-08-11T17:27:24Z</time>
      </trkpt>
      <trkpt lat="47.83473" lon="-2.96024">
        <ele>149.14</ele>
        <time>2020-08-11T17:27:37Z</time>
      </trkpt>
      <trkpt lat="47.83478" lon="-2.9605">
        <ele>149.62</ele>
        <time>2020-08-11T17:27:49Z</time>
      </trkpt>
      <trkpt lat="47.83486" lon="-2.96087">
        <ele>148.66</ele>
        <time>2020-08-11T17:28:02Z</time>
      </trkpt>
      <trkpt lat="47.83486" lon="-2.96094">
        <ele>148.66</ele>
        <time>2020-08-11T17:28:11Z</time>
      </trkpt>
      <trkpt lat="47.83488" lon="-2.96105">
        <ele>148.66</ele>
        <time>2020-08-11T17:28:22Z</time>
      </trkpt>
      <trkpt lat="47.83493" lon="-2.96125">
        <ele>148.18</ele>
        <time>2020-08-11T17:28:35Z</time>
      </trkpt>
      <trkpt lat="47.83495" lon="-2.96139">
        <ele>147.7</ele>
        <time>2020-08-11T17:28:47Z</time>
      </trkpt>
      <trkpt lat="47.83496" lon="-2.96148">
        <ele>147.7</ele>
        <time>2020-08-11T17:29:00Z</time>
      </trkpt>
      <trkpt lat="47.83496" lon="-2.96148">
        <ele>146.26</ele>
        <time>2020-08-11T17:29:06Z</time>
      </trkpt>
      <trkpt lat="47.83495" lon="-2.96149">
        <ele>147.7</ele>
        <time>2020-08-11T17:29:08Z</time>
      </trkpt>
      <trkpt lat="47.83494" lon="-2.9615">
        <ele>147.7</ele>
        <time>2020-08-11T17:29:19Z</time>
      </trkpt>
    </trkseg>
  </trk>
</gpx>